Fort Benton, Montana
Current Conditions -  °F | °C
As of 1:56 AM on Sunday 26 Oct 2014 (Local Time) from KGFA Reporting Station
Broken Clouds Broken Clouds  
Wind Chill: 52°   Ceiling: 23000
Heat Index: 52°   Visibility: 10mi
Dew Point: 38°   Wind: 13mph
Humidity: 59%   Direction: 210°SSW
Pressure: 29.6"   Gusts: NA
Location:  47.82°N, 110.67°W
Report Text: KGFA 260756Z AUTO 21011KT 10SM FEW180 BKN230 11/04 A2960 RMK AO2 SLP028 T01130035
Loading
Personal Weather Stations






























Interactive Weather Map
Tropical Storm Tracking
New forecast layout! Learn more

10-Day Weather Forecast

Advertisements
Track Severe Weather on mobile